Time;durP1;ratioP1;P1;durP2;ratioP2;P2;SDS_P1;SDS_P2;PMS_P1;PMS_P2;Temp;Humidity;BMP_temperature;BMP_pressure;BME280_temperature;BME280_humidity;BME280_pressure;Samples;Min_cycle;Max_cycle;Signal;HPM_P1;HPM_P2
2024/01/28 00:06:18;;;;;;;16.35;6.47;;;4.50;1.00;;;;;;20677973;28;20034;-40
2024/01/28 00:16:20;;;;;;;21.48;7.72;;;4.50;1.00;;;;;;20686710;28;20163;-39
2024/01/28 00:26:20;;;;;;;20.10;8.00;;;4.30;1.00;;;;;;20689434;28;20494;-39
2024/01/28 00:36:21;;;;;;;17.08;7.45;;;4.10;1.00;;;;;;20684711;28;20532;-39
2024/01/28 00:46:22;;;;;;;17.23;7.68;;;3.80;1.00;;;;;;20680116;28;20061;-39
2024/01/28 00:56:22;;;;;;;18.30;7.88;;;3.60;1.00;;;;;;20684289;28;20034;-40
2024/01/28 01:06:23;;;;;;;16.88;7.32;;;3.30;1.00;;;;;;20684070;28;20036;-39
2024/01/28 01:16:24;;;;;;;13.38;6.78;;;3.00;1.00;;;;;;20680906;28;20396;-39
2024/01/28 01:26:24;;;;;;;14.77;7.35;;;2.90;1.00;;;;;;20683996;28;20449;-40
2024/01/28 01:36:25;;;;;;;17.70;7.70;;;2.70;1.00;;;;;;20670990;28;20136;-39
2024/01/28 01:46:26;;;;;;;13.80;6.85;;;2.50;1.00;;;;;;20680971;28;20513;-40
2024/01/28 01:56:29;;;;;;;15.40;8.00;;;2.50;3.20;;;;;;20677855;28;20092;-39
2024/01/28 02:06:29;;;;;;;16.58;7.15;;;2.50;6.90;;;;;;20688145;28;20033;-40
2024/01/28 02:16:30;;;;;;;18.83;7.65;;;2.60;11.50;;;;;;20690593;28;20040;-39
2024/01/28 02:26:31;;;;;;;18.60;6.95;;;2.80;11.10;;;;;;20677334;28;20052;-40
2024/01/28 02:36:32;;;;;;;15.13;7.40;;;2.80;7.10;;;;;;20673142;28;20092;-39
2024/01/28 02:46:33;;;;;;;15.88;7.68;;;2.70;11.00;;;;;;20673641;28;20453;-40
2024/01/28 02:56:33;;;;;;;18.03;8.00;;;2.80;6.50;;;;;;20676415;28;20050;-39
2024/01/28 03:06:34;;;;;;;20.90;7.68;;;2.80;4.40;;;;;;20679674;28;20449;-39
2024/01/28 03:16:35;;;;;;;18.90;8.13;;;2.70;3.10;;;;;;20691478;28;20133;-39
2024/01/28 03:26:35;;;;;;;14.80;7.72;;;2.70;5.00;;;;;;20692081;28;20034;-39
2024/01/28 03:36:36;;;;;;;15.73;7.10;;;2.70;1.00;;;;;;20847202;23;20045;-38
2024/01/28 03:46:38;;;;;;;20.77;8.02;;;2.70;1.00;;;;;;20703848;28;20120;-39
2024/01/28 03:56:40;;;;;;;16.42;7.85;;;2.60;1.00;;;;;;20697862;28;20042;-39
2024/01/28 04:06:44;;;;;;;20.08;7.93;;;2.80;1.00;;;;;;20695451;28;20401;-39
2024/01/28 04:16:45;;;;;;;16.42;7.43;;;2.80;1.00;;;;;;20697619;28;20034;-38
2024/01/28 04:26:45;;;;;;;16.80;7.13;;;2.80;1.00;;;;;;20693198;28;20037;-38
2024/01/28 04:36:46;;;;;;;17.13;6.87;;;2.80;1.00;;;;;;20692967;28;20605;-39
2024/01/28 04:46:48;;;;;;;16.77;7.38;;;2.70;1.00;;;;;;20689070;28;20485;-39
2024/01/28 04:56:49;;;;;;;15.55;6.47;;;2.70;1.00;;;;;;20685622;28;20041;-39
2024/01/28 05:06:50;;;;;;;14.25;6.88;;;2.50;1.00;;;;;;20691225;28;20038;-39
2024/01/28 05:16:50;;;;;;;12.60;6.82;;;2.40;1.00;;;;;;20680570;28;20034;-39
2024/01/28 05:26:51;;;;;;;14.55;6.50;;;2.60;1.00;;;;;;20687288;28;20046;-39
2024/01/28 05:36:52;;;;;;;17.17;6.72;;;2.60;1.00;;;;;;20683054;28;20065;-39
2024/01/28 05:46:52;;;;;;;17.02;6.70;;;2.60;1.00;;;;;;20687412;28;20047;-39
2024/01/28 05:56:53;;;;;;;12.30;6.10;;;2.50;1.00;;;;;;20684552;28;20397;-39
2024/01/28 06:06:54;;;;;;;16.13;7.28;;;2.60;1.00;;;;;;20686599;28;20045;-39
2024/01/28 06:16:56;;;;;;;17.77;6.25;;;2.50;1.00;;;;;;20682771;28;20049;-38
2024/01/28 06:26:56;;;;;;;16.27;5.95;;;2.50;1.00;;;;;;20682875;28;20504;-38
2024/01/28 06:36:57;;;;;;;15.65;6.38;;;2.40;1.00;;;;;;20677879;28;20514;-39
2024/01/28 06:46:59;;;;;;;10.88;5.53;;;2.40;1.00;;;;;;20695315;28;20185;-39
2024/01/28 06:56:59;;;;;;;14.25;6.13;;;2.20;1.00;;;;;;20710791;28;20091;-38
2024/01/28 07:07:01;;;;;;;13.70;5.63;;;2.30;1.00;;;;;;20707497;28;20422;-38
2024/01/28 07:17:02;;;;;;;13.95;5.90;;;2.30;1.00;;;;;;20708923;28;20050;-39
2024/01/28 07:27:03;;;;;;;10.98;5.43;;;2.40;1.00;;;;;;20707638;28;20044;-39
2024/01/28 07:37:03;;;;;;;13.90;6.15;;;2.20;1.00;;;;;;20709890;28;20041;-39
2024/01/28 07:47:04;;;;;;;12.05;5.95;;;2.20;1.00;;;;;;20706947;28;20025;-38
2024/01/28 07:57:05;;;;;;;13.52;6.15;;;2.10;1.00;;;;;;20693304;28;20050;-50
2024/01/28 08:07:06;;;;;;;12.43;5.93;;;2.10;1.00;;;;;;20695663;28;20049;-39
2024/01/28 08:17:08;;;;;;;13.63;6.32;;;2.10;1.00;;;;;;20689767;28;20145;-39
2024/01/28 08:27:09;;;;;;;13.55;6.60;;;2.20;1.00;;;;;;20690825;28;20036;-39
2024/01/28 08:37:10;;;;;;;14.38;6.88;;;2.30;1.00;;;;;;20688073;28;20054;-39
2024/01/28 08:47:11;;;;;;;14.00;6.40;;;2.50;1.00;;;;;;20687683;28;26021;-39
2024/01/28 08:57:12;;;;;;;14.32;7.07;;;2.60;1.00;;;;;;20687405;28;20461;-39
2024/01/28 09:07:13;;;;;;;13.65;6.60;;;3.00;1.00;;;;;;20689269;28;20034;-38
2024/01/28 09:17:13;;;;;;;15.73;6.75;;;3.20;1.00;;;;;;20689402;28;20045;-39
2024/01/28 09:27:14;;;;;;;12.65;6.38;;;3.40;1.00;;;;;;20686866;28;20405;-38
2024/01/28 09:37:15;;;;;;;18.00;7.07;;;3.70;1.00;;;;;;20683834;28;20561;-39
2024/01/28 09:47:19;;;;;;;15.30;7.57;;;4.00;1.00;;;;;;20686999;28;20042;-39
2024/01/28 09:57:20;;;;;;;18.20;7.97;;;4.30;1.00;;;;;;20677914;28;20466;-39
2024/01/28 10:07:22;;;;;;;15.18;7.75;;;4.60;1.00;;;;;;20679602;28;20034;-39
2024/01/28 10:17:23;;;;;;;12.98;6.90;;;4.80;1.00;;;;;;20678098;28;20068;-38
2024/01/28 10:27:24;;;;;;;12.00;6.20;;;5.10;1.00;;;;;;20680308;28;20107;-39
2024/01/28 10:37:27;;;;;;;13.23;5.95;;;5.30;1.00;;;;;;20675933;28;20401;-39
2024/01/28 10:47:31;;;;;;;11.02;5.13;;;5.90;1.00;;;;;;20674195;28;20073;-39
2024/01/28 10:57:36;;;;;;;12.27;5.40;;;6.50;1.00;;;;;;20681035;28;20042;-39
2024/01/28 11:07:36;;;;;;;13.38;5.47;;;6.90;1.00;;;;;;20680928;28;20054;-40
2024/01/28 11:17:37;;;;;;;9.68;4.50;;;7.50;1.00;;;;;;20672181;28;20034;-39
2024/01/28 11:27:39;;;;;;;12.30;5.28;;;8.30;1.00;;;;;;20671049;28;20038;-40
2024/01/28 11:37:50;;;;;;;11.02;4.68;;;8.60;1.00;;;;;;20683733;28;20053;-39
2024/01/28 11:47:51;;;;;;;8.63;4.35;;;9.20;1.00;;;;;;20682647;28;20030;-38
2024/01/28 11:57:52;;;;;;;9.95;4.70;;;9.60;1.00;;;;;;20682144;28;20105;-38
2024/01/28 12:07:54;;;;;;;9.52;4.30;;;9.90;1.00;;;;;;20677517;28;20030;-38
2024/01/28 12:17:56;;;;;;;9.23;4.70;;;10.50;1.00;;;;;;20681698;28;20166;-38
2024/01/28 12:27:56;;;;;;;6.88;4.20;;;10.80;1.00;;;;;;20681813;28;20043;-38
2024/01/28 12:37:57;;;;;;;8.13;4.20;;;10.80;1.00;;;;;;20678577;28;20049;-38
2024/01/28 12:47:58;;;;;;;9.95;4.28;;;11.10;1.00;;;;;;20676450;28;20996;-38
2024/01/28 12:57:58;;;;;;;8.25;4.63;;;11.20;1.00;;;;;;20675171;28;20045;-39
2024/01/28 13:07:59;;;;;;;6.70;4.00;;;11.40;1.00;;;;;;20679298;28;20050;-38
2024/01/28 13:18:00;;;;;;;10.73;4.32;;;11.30;1.00;;;;;;20675397;28;20513;-39
2024/01/28 13:28:00;;;;;;;12.10;5.15;;;11.00;1.00;;;;;;20675122;28;20556;-39
2024/01/28 13:38:01;;;;;;;8.90;5.00;;;11.00;1.00;;;;;;20673291;28;20069;-39
2024/01/28 13:48:02;;;;;;;9.35;5.07;;;10.90;1.00;;;;;;20674969;28;20041;-39
2024/01/28 13:58:03;;;;;;;9.30;4.60;;;11.10;1.00;;;;;;20670809;28;20065;-39
2024/01/28 14:08:03;;;;;;;9.48;4.65;;;11.10;1.00;;;;;;20671034;28;20045;-39
2024/01/28 14:18:05;;;;;;;10.85;4.43;;;10.90;1.00;;;;;;20672475;28;20112;-39
2024/01/28 14:28:05;;;;;;;9.60;4.57;;;10.80;1.00;;;;;;20667281;28;20113;-39
2024/01/28 14:38:06;;;;;;;9.37;5.20;;;10.70;1.00;;;;;;20672553;28;20500;-39
2024/01/28 14:48:07;;;;;;;10.37;5.90;;;10.50;1.00;;;;;;20672451;28;20464;-39
2024/01/28 14:58:08;;;;;;;10.10;5.72;;;10.50;1.00;;;;;;20670372;28;20053;-39
2024/01/28 15:08:08;;;;;;;9.82;5.70;;;10.60;1.00;;;;;;20682211;28;20041;-39
2024/01/28 15:18:09;;;;;;;10.80;5.13;;;10.10;1.00;;;;;;20686254;28;20041;-39
2024/01/28 15:28:10;;;;;;;11.52;5.93;;;9.80;1.00;;;;;;20684412;28;20068;-37
2024/01/28 15:38:11;;;;;;;9.88;5.18;;;9.60;1.00;;;;;;20685147;28;20490;-40
2024/01/28 15:48:12;;;;;;;9.98;5.93;;;9.40;1.00;;;;;;20683716;28;20038;-38
2024/01/28 15:58:12;;;;;;;10.23;6.22;;;9.30;1.00;;;;;;20685586;28;20053;-39
2024/01/28 16:08:13;;;;;;;11.10;6.23;;;9.10;1.00;;;;;;20682259;28;20363;-39
2024/01/28 16:18:14;;;;;;;13.80;6.40;;;9.20;1.00;;;;;;20681879;28;20472;-39
2024/01/28 16:28:15;;;;;;;9.90;6.63;;;9.00;1.00;;;;;;20682867;28;20109;-39
2024/01/28 16:38:15;;;;;;;10.68;6.10;;;8.80;1.00;;;;;;20677355;28;20501;-39
2024/01/28 16:48:16;;;;;;;10.82;6.45;;;8.70;1.00;;;;;;20673766;28;20038;-39
2024/01/28 16:58:18;;;;;;;12.27;6.07;;;8.50;1.00;;;;;;20679060;28;20054;-39
2024/01/28 17:08:19;;;;;;;9.55;6.28;;;8.40;1.00;;;;;;20675369;28;20030;-39
2024/01/28 17:18:20;;;;;;;13.38;6.10;;;8.30;1.00;;;;;;20675249;28;20517;-39
2024/01/28 17:28:21;;;;;;;11.82;6.63;;;8.40;1.00;;;;;;20676221;28;20037;-39
2024/01/28 17:38:22;;;;;;;11.73;6.75;;;8.30;1.00;;;;;;20678150;28;20042;-39
2024/01/28 17:48:22;;;;;;;14.10;7.13;;;8.30;1.00;;;;;;20674596;28;20473;-39
2024/01/28 17:58:23;;;;;;;12.00;7.07;;;8.20;1.00;;;;;;20654627;28;20128;-39
2024/01/28 18:08:23;;;;;;;21.70;10.43;;;8.20;1.00;;;;;;20656220;28;20390;-39
2024/01/28 18:18:24;;;;;;;14.98;7.97;;;8.10;1.00;;;;;;20657411;28;20426;-39
2024/01/28 18:28:25;;;;;;;16.60;7.93;;;8.00;1.00;;;;;;20656802;28;20041;-39
2024/01/28 18:38:25;;;;;;;17.73;10.10;;;8.00;1.00;;;;;;20658165;28;20488;-39
2024/01/28 18:48:26;;;;;;;15.02;8.40;;;8.00;1.00;;;;;;20660357;28;20481;-39
2024/01/28 18:58:26;;;;;;;20.50;10.15;;;7.90;1.00;;;;;;20664993;28;21109;-38
2024/01/28 19:08:27;;;;;;;17.30;10.77;;;7.90;1.00;;;;;;20666878;28;20126;-39
2024/01/28 19:18:29;;;;;;;11.98;7.32;;;8.00;1.00;;;;;;20613472;28;20520;-39
2024/01/28 19:28:30;;;;;;;12.88;6.88;;;7.90;1.00;;;;;;20659823;28;20041;-39
2024/01/28 19:38:31;;;;;;;12.80;7.10;;;8.00;1.00;;;;;;20654528;28;20038;-39
2024/01/28 19:48:31;;;;;;;15.63;6.32;;;8.00;1.00;;;;;;20656673;28;20454;-38
2024/01/28 19:58:32;;;;;;;11.50;5.93;;;7.90;1.00;;;;;;20668249;28;20080;-39
2024/01/28 20:08:33;;;;;;;11.45;6.18;;;7.90;1.00;;;;;;20666248;28;20096;-39
2024/01/28 20:18:33;;;;;;;11.60;5.78;;;7.80;1.00;;;;;;20673965;28;20088;-38
2024/01/28 20:28:34;;;;;;;17.52;8.15;;;8.00;1.00;;;;;;20676978;28;20037;-39
2024/01/28 20:38:35;;;;;;;11.98;6.70;;;8.00;1.00;;;;;;20667967;28;20382;-39
2024/01/28 20:48:36;;;;;;;11.88;6.32;;;7.90;1.00;;;;;;20674493;28;20034;-39
2024/01/28 20:58:39;;;;;;;17.10;8.90;;;7.80;1.00;;;;;;20674181;28;20555;-39
2024/01/28 21:08:40;;;;;;;39.97;17.75;;;7.70;1.00;;;;;;20675678;28;20386;-38
2024/01/28 21:18:40;;;;;;;41.83;19.63;;;7.60;1.00;;;;;;20686474;28;20068;-39
2024/01/28 21:28:42;;;;;;;23.05;10.77;;;7.60;1.00;;;;;;20692536;28;20037;-39
2024/01/28 21:38:42;;;;;;;10.93;6.63;;;7.60;1.00;;;;;;20692240;28;20046;-39
2024/01/28 21:48:43;;;;;;;10.95;5.80;;;7.90;1.00;;;;;;20681382;28;20044;-38
2024/01/28 21:58:44;;;;;;;11.43;6.03;;;7.90;1.00;;;;;;20676465;28;20037;-38
2024/01/28 22:08:44;;;;;;;12.50;7.38;;;8.00;1.00;;;;;;20672465;28;20450;-39
2024/01/28 22:18:45;;;;;;;11.00;6.07;;;8.00;1.00;;;;;;20679518;28;20112;-39
2024/01/28 22:28:46;;;;;;;10.43;5.65;;;8.00;1.00;;;;;;20671078;28;20124;-39
2024/01/28 22:38:46;;;;;;;10.10;5.80;;;7.90;1.00;;;;;;20658355;28;20042;-39
2024/01/28 22:48:47;;;;;;;11.87;6.00;;;7.70;1.00;;;;;;20662002;28;20042;-38
2024/01/28 22:58:49;;;;;;;9.77;5.78;;;7.50;1.00;;;;;;20657813;28;21111;-39
2024/01/28 23:08:49;;;;;;;10.13;6.03;;;7.40;1.00;;;;;;20668696;28;20031;-39
2024/01/28 23:18:51;;;;;;;10.85;5.47;;;7.40;1.00;;;;;;20666989;28;20103;-39
2024/01/28 23:28:53;;;;;;;8.85;5.25;;;7.30;1.00;;;;;;20683654;28;20092;-39
2024/01/28 23:38:55;;;;;;;7.70;5.38;;;7.30;1.00;;;;;;20695544;28;20041;-39
2024/01/28 23:48:55;;;;;;;9.65;5.50;;;7.30;1.00;;;;;;20689699;28;20042;-39
2024/01/28 23:58:56;;;;;;;9.13;5.30;;;7.20;1.00;;;;;;20686380;28;20057;-39
